createdAt,value
2022-08-14T00:00:23.958Z,5.95
2022-08-14T00:02:56.207Z,6.88
2022-08-14T00:05:32.811Z,6.18
2022-08-14T00:08:04.787Z,7.05
2022-08-14T00:10:51.993Z,5.25
2022-08-14T00:13:30.965Z,7.57
2022-08-14T00:16:03.112Z,8.80
2022-08-14T00:19:06.491Z,6.32
2022-08-14T00:21:34.164Z,6.50
2022-08-14T00:24:06.642Z,9.23
2022-08-14T00:26:41.523Z,12.00
2022-08-14T00:29:15.467Z,9.50
2022-08-14T00:31:47.547Z,6.45
2022-08-14T00:34:37.021Z,6.13
2022-08-14T00:37:09.929Z,7.30
2022-08-14T00:39:42.607Z,4.13
2022-08-14T00:42:21.231Z,10.35
2022-08-14T00:45:09.065Z,9.35
2022-08-14T00:47:45.376Z,6.55
2022-08-14T00:50:20.221Z,7.75
2022-08-14T00:53:00.227Z,9.90
2022-08-14T00:55:36.246Z,6.30
2022-08-14T00:58:32.839Z,9.45
2022-08-14T01:01:08.208Z,10.20
2022-08-14T01:03:42.404Z,7.28
2022-08-14T01:06:18.473Z,4.93
2022-08-14T01:08:59.515Z,10.20
2022-08-14T01:11:36.075Z,5.18
2022-08-14T01:14:25.163Z,8.02
2022-08-14T01:16:59.964Z,7.32
2022-08-14T01:19:50.584Z,6.82
2022-08-14T01:22:37.222Z,6.32
2022-08-14T01:25:11.195Z,7.60
2022-08-14T01:27:53.971Z,4.80
2022-08-14T01:30:36.583Z,7.95
2022-08-14T01:33:16.816Z,9.77
2022-08-14T01:36:05.003Z,9.63
2022-08-14T01:38:44.165Z,13.05
2022-08-14T01:41:23.075Z,7.95
2022-08-14T01:44:07.740Z,5.75
2022-08-14T01:47:01.969Z,6.68
2022-08-14T01:49:59.040Z,7.68
2022-08-14T01:52:59.400Z,13.32
2022-08-14T01:55:31.394Z,7.18
2022-08-14T01:58:20.401Z,7.82
2022-08-14T02:00:55.730Z,5.53
2022-08-14T02:03:35.673Z,8.43
2022-08-14T02:06:32.198Z,7.60
2022-08-14T02:09:18.929Z,8.93
2022-08-14T02:11:54.835Z,7.68
2022-08-14T02:14:30.995Z,10.35
2022-08-14T02:17:09.804Z,10.65
2022-08-14T02:19:44.526Z,10.13
2022-08-14T02:22:32.560Z,7.22
2022-08-14T02:25:05.951Z,9.23
2022-08-14T02:28:22.973Z,7.35
2022-08-14T02:30:33.901Z,9.38
2022-08-14T02:33:07.472Z,6.65
2022-08-14T02:35:43.488Z,9.60
2022-08-14T02:38:29.920Z,10.98
2022-08-14T02:41:11.094Z,6.88
2022-08-14T02:43:46.489Z,5.57
2022-08-14T02:46:26.998Z,7.00
2022-08-14T02:49:06.630Z,10.27
2022-08-14T02:51:41.364Z,9.55
2022-08-14T02:54:19.864Z,7.15
2022-08-14T02:57:15.833Z,7.82
2022-08-14T02:59:50.225Z,10.65
2022-08-14T03:02:48.769Z,6.97
2022-08-14T03:05:14.838Z,8.25
2022-08-14T03:07:46.799Z,5.72
2022-08-14T03:10:27.723Z,9.13
2022-08-14T03:13:06.268Z,7.70
2022-08-14T03:15:55.322Z,8.10
2022-08-14T03:18:31.308Z,13.90
2022-08-14T03:21:09.326Z,10.05
2022-08-14T03:23:45.931Z,10.02
2022-08-14T03:26:29.810Z,11.00
2022-08-14T03:29:03.987Z,8.95
2022-08-14T03:31:38.349Z,7.40
2022-08-14T03:34:24.978Z,7.55
2022-08-14T03:37:29.672Z,7.70
2022-08-14T03:40:00.905Z,9.20
2022-08-14T03:42:35.750Z,10.60
2022-08-14T03:45:18.536Z,13.25
2022-08-14T03:48:27.486Z,7.13
2022-08-14T03:51:02.808Z,11.80
2022-08-14T03:53:38.088Z,16.10
2022-08-14T03:56:14.673Z,16.80
2022-08-14T03:59:03.174Z,11.27
2022-08-14T04:01:39.153Z,11.55
2022-08-14T04:04:13.481Z,10.25
2022-08-14T04:06:48.628Z,7.28
2022-08-14T04:09:21.791Z,9.90
2022-08-14T04:12:00.060Z,10.57
2022-08-14T04:14:37.296Z,15.07
2022-08-14T04:17:11.336Z,9.15
2022-08-14T04:19:47.469Z,8.27
2022-08-14T04:22:22.464Z,7.47
2022-08-14T04:24:54.385Z,10.02
2022-08-14T04:27:27.373Z,10.50
2022-08-14T04:29:59.657Z,8.55
2022-08-14T04:32:58.137Z,10.50
2022-08-14T04:35:25.768Z,11.25
2022-08-14T04:38:39.765Z,9.13
2022-08-14T04:41:31.007Z,13.30
2022-08-14T04:44:05.011Z,15.23
2022-08-14T04:46:55.528Z,13.60
2022-08-14T04:49:31.758Z,11.55
2022-08-14T04:52:15.450Z,12.50
2022-08-14T04:54:55.361Z,8.10
2022-08-14T04:57:27.199Z,9.52
2022-08-14T05:00:00.862Z,12.65
2022-08-14T05:02:34.777Z,10.93
2022-08-14T05:05:08.972Z,11.73
2022-08-14T05:07:54.453Z,9.73
2022-08-14T05:10:33.595Z,15.80
2022-08-14T05:13:14.182Z,9.02
2022-08-14T05:15:51.155Z,8.25
2022-08-14T05:19:16.672Z,11.35
2022-08-14T05:21:56.922Z,15.20
2022-08-14T05:24:21.193Z,12.07
2022-08-14T05:26:54.332Z,14.05
2022-08-14T05:29:27.481Z,9.88
2022-08-14T05:32:01.196Z,8.93
2022-08-14T05:34:34.205Z,10.50
2022-08-14T05:37:06.709Z,12.75
2022-08-14T05:39:41.693Z,14.30
2022-08-14T05:42:21.508Z,13.27
2022-08-14T05:44:58.565Z,7.85
2022-08-14T05:47:39.190Z,11.15
2022-08-14T05:50:17.384Z,14.15
2022-08-14T05:52:51.791Z,11.55
2022-08-14T05:55:26.145Z,13.95
2022-08-14T05:58:04.705Z,10.70
2022-08-14T06:00:44.266Z,14.73
2022-08-14T06:03:22.490Z,9.10
2022-08-14T06:05:56.810Z,14.48
2022-08-14T06:08:41.076Z,15.82
2022-08-14T06:11:14.707Z,14.70
2022-08-14T06:13:47.106Z,10.25
2022-08-14T06:16:20.766Z,8.45
2022-08-14T06:18:54.830Z,12.95
2022-08-14T06:21:31.460Z,14.60
2022-08-14T06:24:05.104Z,13.13
2022-08-14T06:26:42.378Z,6.55
2022-08-14T06:29:23.844Z,10.38
2022-08-14T06:32:00.653Z,10.93
2022-08-14T06:35:11.335Z,9.85
2022-08-14T06:37:47.821Z,6.65
2022-08-14T06:40:34.147Z,10.80
2022-08-14T06:43:10.145Z,9.23
2022-08-14T06:45:50.293Z,9.80
2022-08-14T06:48:29.130Z,9.77
2022-08-14T06:51:04.610Z,9.38
2022-08-14T06:53:39.550Z,9.32
2022-08-14T06:56:16.691Z,9.07
2022-08-14T06:58:50.701Z,10.32
2022-08-14T07:01:43.756Z,8.00
2022-08-14T07:04:34.393Z,11.27
2022-08-14T07:07:07.562Z,8.75
2022-08-14T07:09:44.258Z,5.45
2022-08-14T07:12:54.607Z,5.97
2022-08-14T07:15:15.628Z,6.82
2022-08-14T07:17:51.884Z,10.10
2022-08-14T07:20:30.671Z,7.65
2022-08-14T07:23:09.277Z,10.15
2022-08-14T07:25:44.819Z,7.55
2022-08-14T07:28:26.259Z,6.60
2022-08-14T07:31:05.073Z,5.78
2022-08-14T07:33:48.653Z,10.32
2022-08-14T07:36:27.260Z,6.75
2022-08-14T07:39:12.183Z,8.63
2022-08-14T07:41:47.943Z,10.55
2022-08-14T07:44:32.070Z,5.28
2022-08-14T07:47:07.635Z,4.53
2022-08-14T07:49:42.268Z,8.23
2022-08-14T07:52:15.468Z,8.48
2022-08-14T07:54:55.071Z,5.13
2022-08-14T07:57:27.897Z,6.93
2022-08-14T08:00:02.536Z,5.13
2022-08-14T08:02:38.885Z,10.27
2022-08-14T08:05:14.617Z,6.18
2022-08-14T08:07:49.540Z,6.70
2022-08-14T08:11:01.693Z,4.95
2022-08-14T08:13:29.319Z,8.48
2022-08-14T08:16:03.253Z,8.27
2022-08-14T08:18:36.214Z,5.85
2022-08-14T08:21:08.506Z,7.03
2022-08-14T08:23:43.466Z,6.35
2022-08-14T08:26:30.756Z,8.05
2022-08-14T08:29:03.124Z,3.58
2022-08-14T08:31:48.928Z,6.75
2022-08-14T08:34:24.336Z,9.65
2022-08-14T08:36:58.646Z,5.13
2022-08-14T08:40:02.697Z,4.72
2022-08-14T08:42:38.876Z,11.10
2022-08-14T08:45:18.720Z,7.28
2022-08-14T08:47:51.259Z,8.60
2022-08-14T08:53:10.321Z,8.35
2022-08-14T08:55:45.263Z,7.97
2022-08-14T08:58:19.825Z,4.25
2022-08-14T09:01:01.809Z,7.72
2022-08-14T09:03:40.787Z,6.13
2022-08-14T09:07:00.759Z,6.63
2022-08-14T09:09:23.769Z,3.50
2022-08-14T09:11:59.673Z,6.45
2022-08-14T09:14:32.541Z,5.95
2022-08-14T09:17:06.889Z,5.05
2022-08-14T09:19:41.686Z,8.93
2022-08-14T09:22:34.938Z,6.97
2022-08-14T09:25:08.856Z,9.27
2022-08-14T09:27:40.862Z,7.50
2022-08-14T09:30:32.462Z,6.70
2022-08-14T09:33:09.194Z,4.30
2022-08-14T09:36:08.928Z,4.40
2022-08-14T09:39:28.772Z,6.93
2022-08-14T09:42:49.980Z,6.50
2022-08-14T09:45:30.869Z,4.00
2022-08-14T09:48:27.488Z,6.47
2022-08-14T09:54:17.847Z,5.97
2022-08-14T09:56:56.883Z,7.15
2022-08-14T09:59:40.765Z,6.15
2022-08-14T10:02:27.984Z,4.70
2022-08-14T10:05:13.257Z,4.43
2022-08-14T10:07:53.565Z,6.97
2022-08-14T10:10:41.770Z,6.30
2022-08-14T10:13:25.173Z,7.28
2022-08-14T10:16:00.593Z,5.28
2022-08-14T10:18:34.603Z,4.65
2022-08-14T10:21:16.537Z,5.03
2022-08-14T10:23:52.525Z,4.97
2022-08-14T10:26:28.021Z,11.48
2022-08-14T10:29:19.024Z,8.60
2022-08-14T10:32:02.280Z,6.88
2022-08-14T10:34:38.671Z,5.20
2022-08-14T10:37:16.985Z,3.58
2022-08-14T10:40:10.491Z,6.30
2022-08-14T10:42:43.931Z,3.78
2022-08-14T10:45:33.823Z,3.03
2022-08-14T10:48:23.552Z,6.22
2022-08-14T10:51:09.658Z,7.47
2022-08-14T10:53:56.205Z,5.55
2022-08-14T10:56:35.149Z,6.88
2022-08-14T10:59:08.714Z,9.00
2022-08-14T11:01:47.475Z,5.55
2022-08-14T11:04:30.495Z,8.48
2022-08-14T11:07:02.930Z,3.25
2022-08-14T11:09:41.844Z,4.38
2022-08-14T11:12:44.092Z,9.00
2022-08-14T11:15:09.126Z,9.15
2022-08-14T11:17:41.547Z,5.97
2022-08-14T11:20:20.927Z,6.20
2022-08-14T11:22:58.980Z,5.60
2022-08-14T11:25:41.316Z,4.28
2022-08-14T11:28:18.990Z,8.15
2022-08-14T11:30:54.172Z,6.70
2022-08-14T11:33:32.518Z,4.60
2022-08-14T11:36:18.190Z,6.57
2022-08-14T11:38:53.775Z,6.22
2022-08-14T11:41:27.369Z,5.28
2022-08-14T11:43:59.896Z,4.38
2022-08-14T11:46:37.869Z,7.70
2022-08-14T11:49:10.939Z,6.45
2022-08-14T11:51:55.262Z,5.40
2022-08-14T11:54:34.699Z,6.95
2022-08-14T11:57:14.969Z,10.45
2022-08-14T12:00:01.190Z,7.18
2022-08-14T12:03:03.072Z,7.32
2022-08-14T12:05:35.924Z,7.15
2022-08-14T12:08:13.455Z,5.43
2022-08-14T12:10:46.673Z,7.18
2022-08-14T12:13:23.434Z,8.07
2022-08-14T12:16:11.113Z,7.03
2022-08-14T12:18:58.329Z,3.17
2022-08-14T12:21:32.258Z,6.78
2022-08-14T12:24:06.248Z,5.43
2022-08-14T12:26:41.546Z,6.53
2022-08-14T12:29:16.779Z,4.05
2022-08-14T12:31:59.106Z,8.45
2022-08-14T12:34:37.110Z,7.90
2022-08-14T12:37:11.802Z,6.22
2022-08-14T12:39:44.451Z,3.88
2022-08-14T12:42:34.155Z,7.18
2022-08-14T12:45:08.029Z,6.22
2022-08-14T12:47:44.387Z,6.55
2022-08-14T12:50:23.503Z,8.07
2022-08-14T12:53:13.843Z,6.03
2022-08-14T12:56:17.822Z,7.07
2022-08-14T12:58:56.752Z,6.72
2022-08-14T13:01:56.715Z,7.32
2022-08-14T13:04:25.942Z,6.53
2022-08-14T13:07:08.609Z,7.82
2022-08-14T13:09:41.599Z,8.52
2022-08-14T13:12:32.333Z,7.43
2022-08-14T13:15:12.211Z,7.38
2022-08-14T13:17:50.998Z,5.30
2022-08-14T13:20:26.724Z,6.82
2022-08-14T13:23:03.003Z,9.45
2022-08-14T13:25:40.789Z,11.30
2022-08-14T13:28:41.333Z,6.53
2022-08-14T13:31:30.478Z,6.03
2022-08-14T13:34:05.409Z,6.53
2022-08-14T13:36:51.534Z,9.10
2022-08-14T13:39:27.337Z,10.95
2022-08-14T13:42:04.795Z,7.72
2022-08-14T13:44:42.932Z,8.98
2022-08-14T13:47:19.982Z,6.15
2022-08-14T13:49:57.605Z,9.95
2022-08-14T13:52:59.243Z,7.35
2022-08-14T13:55:34.340Z,5.80
2022-08-14T13:58:11.488Z,8.68
2022-08-14T14:01:04.475Z,6.57
2022-08-14T14:03:38.106Z,8.57
2022-08-14T14:06:10.239Z,5.30
2022-08-14T14:08:49.200Z,8.90
2022-08-14T14:11:30.044Z,8.73
2022-08-14T14:14:04.976Z,7.88
2022-08-14T14:16:37.450Z,11.93
2022-08-14T14:19:10.268Z,11.65
2022-08-14T14:21:42.776Z,6.15
2022-08-14T14:24:16.348Z,5.05
2022-08-14T14:26:50.245Z,7.57
2022-08-14T14:29:26.233Z,9.00
2022-08-14T14:32:00.616Z,9.27
2022-08-14T14:34:34.169Z,8.63
2022-08-14T14:37:12.369Z,5.45
2022-08-14T14:40:52.590Z,10.85
2022-08-14T14:42:48.990Z,7.55
2022-08-14T14:45:26.829Z,7.63
2022-08-14T14:48:00.534Z,6.72
2022-08-14T14:50:32.796Z,6.20
2022-08-14T14:53:12.668Z,5.00
2022-08-14T14:56:48.127Z,5.45
2022-08-14T14:58:41.496Z,6.07
2022-08-14T15:01:15.778Z,7.78
2022-08-14T15:03:48.212Z,4.50
2022-08-14T15:06:28.888Z,6.25
2022-08-14T15:09:08.877Z,7.38
2022-08-14T15:11:42.049Z,7.75
2022-08-14T15:14:57.184Z,9.88
2022-08-14T15:17:12.506Z,14.15
2022-08-14T15:19:56.226Z,8.27
2022-08-14T15:22:31.109Z,8.98
2022-08-14T15:25:03.251Z,11.70
2022-08-14T15:27:37.392Z,10.65
2022-08-14T15:30:24.312Z,8.80
2022-08-14T15:33:04.233Z,14.40
2022-08-14T15:35:44.930Z,13.85
2022-08-14T15:38:22.761Z,11.45
2022-08-14T15:41:08.596Z,9.98
2022-08-14T15:43:40.717Z,9.95
2022-08-14T15:46:41.189Z,16.10
2022-08-14T15:49:07.906Z,12.45
2022-08-14T15:51:42.296Z,15.55
2022-08-14T15:54:16.356Z,14.70
2022-08-14T15:57:15.149Z,14.52
2022-08-14T16:00:05.784Z,25.80
2022-08-14T16:02:45.922Z,25.08
2022-08-14T16:05:25.493Z,30.25
2022-08-14T16:07:57.705Z,32.55
2022-08-14T16:10:31.960Z,32.53
2022-08-14T16:13:04.037Z,27.77
2022-08-14T16:15:39.412Z,32.03
2022-08-14T16:18:25.580Z,25.58
2022-08-14T16:21:00.467Z,28.30
2022-08-14T16:23:35.918Z,23.27
2022-08-14T16:26:10.984Z,22.88
2022-08-14T16:29:07.508Z,19.48
2022-08-14T16:31:40.619Z,16.20
2022-08-14T16:34:44.414Z,18.40
2022-08-14T16:37:09.314Z,19.52
2022-08-14T16:39:41.982Z,17.77
2022-08-14T16:42:38.946Z,13.30
2022-08-14T16:45:09.854Z,14.00
2022-08-14T16:47:44.367Z,21.75
2022-08-14T16:50:43.095Z,13.63
2022-08-14T16:53:17.230Z,11.13
2022-08-14T16:56:17.207Z,16.25
2022-08-14T16:59:13.976Z,10.93
2022-08-14T17:01:58.054Z,12.65
2022-08-14T17:04:31.732Z,17.13
2022-08-14T17:07:13.463Z,17.50
2022-08-14T17:09:47.266Z,10.40
2022-08-14T17:12:33.750Z,12.07
2022-08-14T17:15:15.346Z,5.18
2022-08-14T17:17:58.255Z,7.25
2022-08-14T17:20:53.729Z,7.63
2022-08-14T17:23:23.462Z,7.13
2022-08-14T17:26:04.814Z,6.72
2022-08-14T17:31:58.369Z,8.20
2022-08-14T17:34:49.557Z,6.07
2022-08-14T17:37:38.314Z,4.93
2022-08-14T17:40:15.865Z,10.23
2022-08-14T17:42:53.810Z,7.53
2022-08-14T17:45:41.478Z,5.97
2022-08-14T17:49:14.441Z,7.68
2022-08-14T17:51:24.118Z,6.40
2022-08-14T17:54:03.045Z,8.48
2022-08-14T17:56:36.209Z,7.85
2022-08-14T17:59:11.669Z,8.13
2022-08-14T18:01:51.846Z,8.38
2022-08-14T18:04:31.715Z,10.52
2022-08-14T18:07:50.552Z,7.18
2022-08-14T18:10:53.010Z,9.48
2022-08-14T18:12:57.015Z,8.32
2022-08-14T18:15:36.861Z,8.95
2022-08-14T18:18:13.026Z,10.13
2022-08-14T18:21:40.212Z,11.95
2022-08-14T18:23:46.638Z,10.70
2022-08-14T18:26:36.100Z,10.50
2022-08-14T18:29:15.043Z,9.32
2022-08-14T18:31:47.195Z,7.95
2022-08-14T18:34:31.080Z,8.13
2022-08-14T18:37:16.747Z,10.73
2022-08-14T18:40:02.467Z,8.18
2022-08-14T18:42:35.533Z,8.65
2022-08-14T18:45:12.523Z,7.57
2022-08-14T18:48:06.701Z,11.55
2022-08-14T18:51:02.625Z,9.50
2022-08-14T18:53:59.390Z,10.20
2022-08-14T18:56:57.535Z,10.40
2022-08-14T18:59:30.252Z,11.15
2022-08-14T19:02:30.528Z,9.77
2022-08-14T19:05:03.719Z,10.48
2022-08-14T19:07:35.887Z,9.80
2022-08-14T19:10:16.595Z,9.23
2022-08-14T19:13:00.321Z,9.57
2022-08-14T19:15:38.116Z,8.30
2022-08-14T19:18:28.788Z,8.02
2022-08-14T19:21:02.420Z,8.27
2022-08-14T19:24:27.082Z,13.00
2022-08-14T19:27:19.550Z,12.60
2022-08-14T19:30:25.563Z,11.35
2022-08-14T19:33:05.423Z,11.02
2022-08-14T19:35:55.659Z,9.38
2022-08-14T19:38:44.382Z,9.65
2022-08-14T19:41:20.264Z,11.80
2022-08-14T19:43:56.862Z,9.88
2022-08-14T19:46:38.758Z,11.40
2022-08-14T19:50:07.976Z,8.80
2022-08-14T19:52:30.091Z,9.88
2022-08-14T19:55:20.231Z,7.68
2022-08-14T19:57:58.189Z,10.30
2022-08-14T20:00:31.014Z,11.48
2022-08-14T20:03:11.338Z,13.05
2022-08-14T20:05:46.478Z,9.50
2022-08-14T20:10:58.349Z,9.40
2022-08-14T20:12:02.030Z,9.40
2022-08-14T20:14:29.893Z,8.07
2022-08-14T20:17:06.553Z,9.55
2022-08-14T20:19:41.919Z,7.82
2022-08-14T20:22:36.445Z,9.00
2022-08-14T20:25:18.362Z,8.07
2022-08-14T20:27:59.562Z,8.63
2022-08-14T20:30:33.991Z,7.45
2022-08-14T20:33:10.895Z,9.70
2022-08-14T20:35:50.021Z,10.15
2022-08-14T20:38:33.197Z,10.48
2022-08-14T20:41:10.623Z,15.93
2022-08-14T20:44:06.407Z,10.95
2022-08-14T20:46:39.573Z,12.93
2022-08-14T20:49:19.388Z,11.63
2022-08-14T20:51:58.690Z,10.30
2022-08-14T20:54:37.010Z,16.10
2022-08-14T20:57:23.955Z,14.13
2022-08-14T20:59:57.464Z,16.75
2022-08-14T21:02:34.456Z,17.13
2022-08-14T21:05:17.332Z,14.93
2022-08-14T21:07:58.528Z,13.95
2022-08-14T21:10:44.798Z,13.75
2022-08-14T21:13:52.599Z,13.20
2022-08-14T21:16:34.577Z,10.32
2022-08-14T21:19:08.496Z,10.70
2022-08-14T21:21:42.630Z,9.18
2022-08-14T21:24:38.580Z,10.07
2022-08-14T21:27:20.204Z,12.93
2022-08-14T21:29:55.770Z,8.63
2022-08-14T21:32:46.814Z,9.05
2022-08-14T21:35:22.623Z,9.85
2022-08-14T21:37:56.292Z,7.25
2022-08-14T21:40:40.505Z,9.60
2022-08-14T21:43:20.389Z,9.75
2022-08-14T21:45:58.158Z,8.45
2022-08-14T21:48:35.890Z,9.75
2022-08-14T21:51:53.783Z,9.38
2022-08-14T21:54:04.242Z,9.98
2022-08-14T21:56:41.138Z,9.57
2022-08-14T21:59:33.100Z,10.02
2022-08-14T22:02:07.162Z,15.00
2022-08-14T22:04:41.280Z,8.52
2022-08-14T22:07:16.793Z,10.65
2022-08-14T22:09:54.635Z,10.27
2022-08-14T22:12:58.719Z,11.73
2022-08-14T22:15:19.850Z,10.18
2022-08-14T22:17:56.670Z,9.73
2022-08-14T22:20:32.637Z,13.57
2022-08-14T22:23:08.720Z,11.52
2022-08-14T22:25:43.989Z,11.43
2022-08-14T22:28:23.220Z,11.60
2022-08-14T22:30:57.848Z,9.90
2022-08-14T22:33:32.546Z,13.23
2022-08-14T22:36:26.291Z,14.27
2022-08-14T22:39:00.603Z,12.13
2022-08-14T22:41:42.477Z,11.38
2022-08-14T22:44:21.795Z,11.90
2022-08-14T22:46:54.061Z,13.00
2022-08-14T22:50:31.832Z,10.18
2022-08-14T22:52:32.483Z,10.77
2022-08-14T22:55:06.512Z,13.65
2022-08-14T22:57:41.921Z,9.93
2022-08-14T23:00:25.634Z,12.70
2022-08-14T23:03:09.706Z,8.85
2022-08-14T23:05:53.050Z,10.88
2022-08-14T23:09:00.189Z,11.20
2022-08-14T23:11:19.411Z,13.20
2022-08-14T23:13:54.870Z,10.50
2022-08-14T23:16:28.915Z,11.57
2022-08-14T23:19:01.721Z,11.45
2022-08-14T23:21:33.572Z,11.25
2022-08-14T23:24:05.841Z,16.15
2022-08-14T23:26:49.807Z,13.50
2022-08-14T23:29:22.621Z,13.30
2022-08-14T23:31:57.013Z,13.20
2022-08-14T23:34:31.299Z,15.73
2022-08-14T23:37:04.662Z,12.88
2022-08-14T23:39:39.162Z,13.60
2022-08-14T23:42:13.442Z,12.48
2022-08-14T23:44:52.632Z,15.75
2022-08-14T23:47:27.933Z,17.02
2022-08-14T23:50:04.282Z,12.80
2022-08-14T23:53:06.792Z,13.35
2022-08-14T23:55:33.904Z,15.02
2022-08-14T23:58:07.881Z,15.60
